Time;durP1;ratioP1;P1;durP2;ratioP2;P2;SDS_P1;SDS_P2;PMS_P1;PMS_P2;Temp;Humidity;BMP_temperature;BMP_pressure;BME280_temperature;BME280_humidity;BME280_pressure;Samples;Min_cycle;Max_cycle;Signal;HPM_P1;HPM_P2
2021/07/10 00:01:53;;;;;;;0.75;0.60;;;23.80;61.30;;;;;;5122869;28;20076;-33
2021/07/10 00:04:19;;;;;;;0.95;0.80;;;23.80;61.80;;;;;;5123137;28;20027;-33
2021/07/10 00:06:45;;;;;;;0.60;0.52;;;23.90;61.80;;;;;;5123424;28;20392;-34
2021/07/10 00:09:11;;;;;;;1.30;0.70;;;23.90;61.90;;;;;;5121846;27;20027;-33
2021/07/10 00:11:38;;;;;;;1.42;0.50;;;23.90;61.80;;;;;;5125412;27;20027;-33
2021/07/10 00:14:04;;;;;;;0.50;0.50;;;23.90;62.00;;;;;;5121614;28;20043;-33
2021/07/10 00:16:30;;;;;;;0.60;0.50;;;23.90;62.20;;;;;;5122655;28;20051;-33
2021/07/10 00:18:56;;;;;;;0.70;0.60;;;23.90;62.20;;;;;;5122843;28;20078;-34
2021/07/10 00:21:22;;;;;;;0.50;0.50;;;23.90;62.20;;;;;;5123218;28;20024;-34
2021/07/10 00:23:48;;;;;;;1.83;0.50;;;23.90;62.20;;;;;;5122865;28;20055;-34
2021/07/10 00:26:15;;;;;;;2.17;0.52;;;23.90;62.30;;;;;;5122394;28;20034;-33
2021/07/10 00:28:41;;;;;;;1.20;0.70;;;23.90;62.40;;;;;;5123127;28;20131;-34
2021/07/10 00:31:07;;;;;;;1.85;0.60;;;23.90;62.50;;;;;;5122875;28;20020;-34
2021/07/10 00:33:33;;;;;;;2.25;0.70;;;24.00;63.00;;;;;;5122818;28;20034;-33
2021/07/10 00:35:59;;;;;;;1.10;0.98;;;24.00;63.40;;;;;;5122953;28;20027;-33
2021/07/10 00:38:25;;;;;;;0.82;0.80;;;24.00;63.80;;;;;;5123045;28;20027;-34
2021/07/10 00:40:51;;;;;;;0.70;0.63;;;24.00;64.20;;;;;;5122719;28;20034;-33
2021/07/10 00:43:18;;;;;;;1.98;0.65;;;24.00;64.50;;;;;;5122693;28;20488;-34
2021/07/10 00:45:44;;;;;;;1.15;0.70;;;24.00;64.60;;;;;;5123139;28;20798;-34
2021/07/10 00:48:10;;;;;;;0.98;0.60;;;24.00;64.60;;;;;;5122686;28;20028;-34
2021/07/10 00:50:36;;;;;;;1.38;0.80;;;24.00;64.60;;;;;;5122848;28;20024;-34
2021/07/10 00:53:02;;;;;;;1.55;0.80;;;24.00;64.40;;;;;;5122588;28;20020;-34
2021/07/10 00:55:28;;;;;;;1.25;0.80;;;24.00;64.20;;;;;;5122528;28;20042;-33
2021/07/10 00:57:55;;;;;;;1.33;0.95;;;24.00;64.00;;;;;;5122853;28;20028;-33
2021/07/10 01:00:22;;;;;;;0.90;0.80;;;24.00;63.80;;;;;;5122780;28;20804;-34
2021/07/10 01:02:50;;;;;;;2.50;0.90;;;24.00;63.60;;;;;;5122595;28;20043;-34
2021/07/10 01:05:20;;;;;;;;;;;24.00;63.50;;;;;;5123269;28;20035;-33
2021/07/10 01:07:46;;;;;;;0.75;0.70;;;24.00;63.40;;;;;;5122285;28;19903;-33
2021/07/10 01:10:12;;;;;;;0.85;0.80;;;24.00;63.30;;;;;;5120734;28;20027;-34
2021/07/10 01:12:39;;;;;;;1.80;0.93;;;24.00;63.60;;;;;;5122741;28;20031;-34
2021/07/10 01:15:06;;;;;;;1.45;0.70;;;24.00;63.80;;;;;;5120936;28;20027;-34
2021/07/10 01:17:33;;;;;;;0.80;0.77;;;24.00;64.10;;;;;;5122668;28;20050;-33
2021/07/10 01:20:04;;;;;;;1.10;0.90;;;24.00;64.10;;;;;;5122483;28;20071;-34
2021/07/10 01:22:32;;;;;;;0.95;0.80;;;24.00;64.10;;;;;;5120887;28;20031;-34
2021/07/10 01:24:58;;;;;;;0.85;0.70;;;24.00;64.20;;;;;;5122094;28;20051;-34
2021/07/10 01:27:24;;;;;;;2.03;0.82;;;24.00;64.20;;;;;;5122516;28;20030;-33
2021/07/10 01:29:50;;;;;;;0.98;0.88;;;24.00;64.30;;;;;;5125838;28;20836;-34
2021/07/10 01:32:17;;;;;;;1.40;0.90;;;24.00;64.40;;;;;;5124991;28;20028;-34
2021/07/10 01:34:46;;;;;;;2.58;1.02;;;24.00;64.40;;;;;;5124262;28;20059;-34
2021/07/10 01:37:14;;;;;;;1.10;0.93;;;24.00;64.50;;;;;;5126156;28;20048;-34
2021/07/10 01:39:40;;;;;;;0.85;0.80;;;24.00;64.60;;;;;;5124697;28;20028;-34
2021/07/10 01:42:06;;;;;;;1.50;0.90;;;24.00;64.50;;;;;;5125829;28;20031;-33
2021/07/10 01:44:33;;;;;;;2.45;0.82;;;24.00;64.50;;;;;;5125725;28;20030;-33
2021/07/10 01:46:59;;;;;;;1.10;1.00;;;24.00;64.40;;;;;;5125859;27;20057;-33
2021/07/10 01:49:25;;;;;;;0.90;0.80;;;24.00;64.30;;;;;;5126029;28;20264;-34
2021/07/10 01:51:51;;;;;;;2.10;0.90;;;24.00;64.30;;;;;;5125916;28;20024;-34
2021/07/10 01:54:17;;;;;;;1.85;0.80;;;24.00;63.90;;;;;;5125351;28;20039;-34
2021/07/10 01:56:44;;;;;;;1.40;0.90;;;24.00;63.50;;;;;;5125486;27;20031;-34
2021/07/10 01:59:10;;;;;;;1.23;1.00;;;24.00;63.40;;;;;;5125628;28;20055;-34
2021/07/10 02:01:36;;;;;;;1.17;1.08;;;24.00;63.60;;;;;;5125526;28;20028;-33
2021/07/10 02:04:02;;;;;;;1.00;0.90;;;24.00;64.00;;;;;;5125261;28;20024;-33
2021/07/10 02:06:28;;;;;;;1.45;0.88;;;24.00;64.00;;;;;;5126741;27;20031;-34
2021/07/10 02:08:55;;;;;;;2.03;0.90;;;24.00;64.40;;;;;;5139004;27;20030;-34
2021/07/10 02:11:21;;;;;;;1.00;0.90;;;24.00;64.80;;;;;;5145847;27;20027;-34
2021/07/10 02:13:47;;;;;;;0.75;0.75;;;24.00;64.10;;;;;;5145959;27;20035;-36
2021/07/10 02:16:15;;;;;;;1.48;0.98;;;24.00;64.20;;;;;;5145694;27;20058;-33
2021/07/10 02:18:40;;;;;;;;;;;24.00;64.10;;;;;;5146229;27;20040;-34
2021/07/10 02:21:07;;;;;;;1.58;1.02;;;24.00;64.10;;;;;;5145610;27;19911;-34
2021/07/10 02:23:33;;;;;;;1.85;0.88;;;24.00;64.00;;;;;;5145811;27;20578;-34
2021/07/10 02:25:59;;;;;;;1.42;1.33;;;24.00;64.10;;;;;;5115906;27;20035;-34
2021/07/10 02:28:25;;;;;;;1.67;0.90;;;24.00;64.20;;;;;;5125162;28;20107;-33
2021/07/10 02:30:51;;;;;;;1.30;1.00;;;24.00;64.20;;;;;;5125075;28;20023;-34
2021/07/10 02:33:17;;;;;;;1.77;1.10;;;24.00;64.20;;;;;;5123533;28;20034;-34
2021/07/10 02:35:44;;;;;;;2.20;0.85;;;24.00;64.20;;;;;;5124691;28;20031;-34
2021/07/10 02:38:11;;;;;;;1.13;0.95;;;24.00;64.20;;;;;;5124898;28;20080;-34
2021/07/10 02:40:37;;;;;;;1.37;0.90;;;24.00;64.20;;;;;;5124485;28;20032;-34
2021/07/10 02:43:03;;;;;;;1.10;1.00;;;24.00;64.20;;;;;;5124642;28;20256;-34
2021/07/10 02:45:29;;;;;;;1.33;1.10;;;24.00;64.20;;;;;;5124658;28;20134;-34
2021/07/10 02:47:57;;;;;;;1.27;0.90;;;24.00;64.30;;;;;;5124741;28;20031;-34
2021/07/10 02:50:24;;;;;;;1.58;1.02;;;24.00;64.20;;;;;;5124373;28;20035;-34
2021/07/10 02:52:53;;;;;;;1.48;1.10;;;24.00;64.20;;;;;;5123155;28;20032;-33
2021/07/10 02:55:20;;;;;;;1.77;1.10;;;24.00;64.20;;;;;;5122764;28;20031;-34
2021/07/10 02:57:46;;;;;;;1.33;0.85;;;24.00;64.00;;;;;;5124601;28;20027;-34
2021/07/10 03:00:15;;;;;;;1.08;0.95;;;24.00;63.90;;;;;;5124264;28;20028;-34
2021/07/10 03:02:41;;;;;;;1.10;1.00;;;24.00;63.90;;;;;;5124502;28;20036;-34
2021/07/10 03:05:08;;;;;;;1.43;1.00;;;24.00;63.80;;;;;;5121247;28;20023;-33
2021/07/10 03:07:40;;;;;;;2.75;1.00;;;23.90;63.80;;;;;;5133209;27;20298;-34
2021/07/10 03:10:08;;;;;;;1.30;1.05;;;23.90;63.60;;;;;;5124062;28;20028;-34
2021/07/10 03:12:34;;;;;;;0.85;0.85;;;23.90;63.70;;;;;;5124328;28;20058;-34
2021/07/10 03:15:01;;;;;;;1.13;1.00;;;23.90;63.60;;;;;;5123948;28;20027;-34
2021/07/10 03:17:27;;;;;;;1.08;0.90;;;23.90;63.40;;;;;;5124365;28;20118;-34
2021/07/10 03:19:53;;;;;;;0.85;0.82;;;23.90;63.70;;;;;;5123662;28;20052;-33
2021/07/10 03:22:19;;;;;;;1.20;1.02;;;23.90;63.80;;;;;;5123114;28;20104;-34
2021/07/10 03:24:45;;;;;;;1.33;1.00;;;23.90;63.80;;;;;;5123677;28;20030;-34
2021/07/10 03:27:12;;;;;;;1.55;1.10;;;23.90;63.90;;;;;;5123859;28;20108;-34
2021/07/10 03:29:38;;;;;;;1.10;1.00;;;23.90;63.90;;;;;;5124015;28;20035;-34
2021/07/10 03:32:04;;;;;;;0.93;0.80;;;23.90;64.00;;;;;;5123735;28;20031;-34
2021/07/10 03:34:30;;;;;;;1.23;1.13;;;23.90;63.90;;;;;;5122511;28;20028;-33
2021/07/10 03:36:57;;;;;;;2.83;0.90;;;23.90;63.80;;;;;;5123510;28;20035;-34
2021/07/10 03:39:23;;;;;;;0.90;0.80;;;23.90;63.90;;;;;;5122358;28;20038;-34
2021/07/10 03:41:49;;;;;;;1.17;1.00;;;23.90;63.90;;;;;;5123506;28;20049;-33
2021/07/10 03:44:15;;;;;;;0.80;0.80;;;23.90;63.90;;;;;;5123547;28;20024;-34
2021/07/10 03:46:41;;;;;;;2.17;1.20;;;23.90;63.90;;;;;;5123383;28;20034;-34
2021/07/10 03:49:07;;;;;;;1.00;0.90;;;23.90;63.90;;;;;;5123492;28;20155;-34
2021/07/10 03:51:33;;;;;;;1.05;0.98;;;23.90;63.90;;;;;;5121292;28;20159;-34
2021/07/10 03:54:00;;;;;;;1.30;1.20;;;23.90;63.90;;;;;;5123537;28;20028;-34
2021/07/10 03:56:26;;;;;;;1.33;0.90;;;23.90;63.90;;;;;;5122883;28;20708;-34
2021/07/10 03:58:52;;;;;;;1.08;0.98;;;23.90;63.80;;;;;;5123493;28;20012;-34
2021/07/10 04:01:18;;;;;;;1.73;1.30;;;23.90;63.80;;;;;;5123484;28;20140;-34
2021/07/10 04:03:44;;;;;;;1.10;1.00;;;23.90;63.80;;;;;;5123319;28;20559;-34
2021/07/10 04:06:10;;;;;;;1.10;1.00;;;23.90;63.90;;;;;;5122090;28;20031;-35
2021/07/10 04:08:36;;;;;;;1.38;1.17;;;23.90;63.90;;;;;;5123177;28;20038;-33
2021/07/10 04:11:03;;;;;;;1.95;1.23;;;23.90;63.90;;;;;;5122954;28;20031;-33
2021/07/10 04:13:29;;;;;;;2.10;1.03;;;23.90;63.90;;;;;;5123203;28;20028;-34
2021/07/10 04:15:57;;;;;;;1.20;1.10;;;23.90;63.80;;;;;;5122731;28;20043;-33
2021/07/10 04:18:22;;;;;;;;;;;23.90;63.90;;;;;;5123478;28;20032;-34
2021/07/10 04:20:49;;;;;;;3.00;1.10;;;23.90;64.00;;;;;;5123145;28;19940;-34
2021/07/10 04:23:15;;;;;;;1.30;1.20;;;23.80;64.00;;;;;;5122699;28;20023;-34
2021/07/10 04:25:41;;;;;;;1.13;1.02;;;23.80;64.00;;;;;;5122942;28;20034;-34
2021/07/10 04:28:07;;;;;;;3.28;1.25;;;23.80;64.00;;;;;;5123004;28;20057;-34
2021/07/10 04:30:33;;;;;;;1.02;0.93;;;23.80;64.00;;;;;;5123163;28;20110;-34
2021/07/10 04:32:59;;;;;;;1.30;0.98;;;23.80;64.00;;;;;;5123273;28;20034;-34
2021/07/10 04:35:26;;;;;;;1.48;0.93;;;23.90;64.20;;;;;;5122863;28;20039;-34
2021/07/10 04:37:52;;;;;;;1.17;0.88;;;23.80;64.10;;;;;;5122631;28;20049;-33
2021/07/10 04:40:18;;;;;;;1.30;1.20;;;23.80;64.10;;;;;;5123020;28;20020;-33
2021/07/10 04:42:44;;;;;;;1.00;0.90;;;23.80;64.10;;;;;;5122808;28;20038;-34
2021/07/10 04:45:12;;;;;;;1.45;1.00;;;23.80;64.10;;;;;;5123061;28;20023;-34
2021/07/10 04:47:38;;;;;;;1.10;0.90;;;23.80;64.00;;;;;;5122770;28;20051;-34
2021/07/10 04:50:05;;;;;;;1.48;0.90;;;23.80;64.00;;;;;;5122649;28;20057;-34
2021/07/10 04:52:31;;;;;;;;;;;23.80;64.10;;;;;;5122146;28;20054;-34
2021/07/10 04:54:57;;;;;;;1.05;1.02;;;23.80;64.10;;;;;;5122581;28;19904;-34
2021/07/10 04:57:23;;;;;;;1.23;1.00;;;23.80;64.00;;;;;;5121484;28;20031;-33
2021/07/10 04:59:50;;;;;;;1.23;1.13;;;23.80;64.00;;;;;;5122896;28;20042;-34
2021/07/10 05:02:17;;;;;;;1.15;1.00;;;23.80;64.00;;;;;;5104282;28;20028;-34
2021/07/10 05:04:43;;;;;;;1.23;1.13;;;23.80;64.00;;;;;;5108238;28;20024;-34
2021/07/10 05:07:09;;;;;;;1.10;1.00;;;23.80;64.10;;;;;;5126137;28;20042;-34
2021/07/10 05:09:35;;;;;;;1.48;1.10;;;23.80;64.10;;;;;;5126778;28;20082;-33
2021/07/10 05:12:01;;;;;;;0.90;0.90;;;23.80;64.00;;;;;;5126558;28;20034;-33
2021/07/10 05:14:27;;;;;;;1.33;0.98;;;23.80;64.00;;;;;;5126686;28;20024;-34
2021/07/10 05:16:54;;;;;;;1.25;1.10;;;23.70;64.00;;;;;;5126216;28;20038;-34
2021/07/10 05:19:20;;;;;;;1.65;1.17;;;23.70;63.90;;;;;;5126332;28;20509;-34
2021/07/10 05:21:46;;;;;;;1.25;1.05;;;23.70;63.90;;;;;;5126353;28;20024;-34
2021/07/10 05:24:12;;;;;;;1.25;1.13;;;23.70;63.90;;;;;;5126304;28;20026;-34
2021/07/10 05:26:38;;;;;;;2.50;1.00;;;23.70;64.00;;;;;;5126022;28;20050;-34
2021/07/10 05:29:05;;;;;;;1.40;0.95;;;23.70;64.00;;;;;;5126188;28;20126;-34
2021/07/10 05:31:31;;;;;;;1.05;1.02;;;23.70;63.90;;;;;;5126379;28;20034;-34
2021/07/10 05:33:57;;;;;;;1.00;0.80;;;23.70;63.90;;;;;;5126206;28;20016;-34
2021/07/10 05:36:24;;;;;;;1.30;0.98;;;23.70;64.00;;;;;;5126130;28;20680;-34
2021/07/10 05:38:50;;;;;;;1.00;0.93;;;23.70;64.00;;;;;;5125875;28;20049;-34
2021/07/10 05:41:16;;;;;;;1.23;1.00;;;23.70;64.00;;;;;;5126088;28;20028;-34
2021/07/10 05:43:42;;;;;;;1.23;1.10;;;23.70;64.80;;;;;;5126017;28;20056;-34
2021/07/10 05:46:09;;;;;;;1.27;1.17;;;23.70;64.10;;;;;;5125858;28;20028;-33
2021/07/10 05:48:36;;;;;;;1.20;1.02;;;23.70;64.10;;;;;;5125669;28;20849;-34
2021/07/10 05:51:02;;;;;;;1.45;1.08;;;23.70;64.10;;;;;;5125813;28;20040;-33
2021/07/10 05:53:28;;;;;;;1.42;1.17;;;23.70;64.10;;;;;;5125948;28;20074;-33
2021/07/10 05:55:54;;;;;;;1.02;0.93;;;23.70;64.00;;;;;;5125540;28;20047;-34
2021/07/10 05:58:20;;;;;;;1.40;1.15;;;23.70;64.10;;;;;;5125744;28;20110;-33
2021/07/10 06:00:47;;;;;;;1.50;1.20;;;23.70;64.00;;;;;;5125653;28;20027;-33
2021/07/10 06:03:13;;;;;;;1.10;1.00;;;23.70;64.10;;;;;;5125645;28;20039;-34
2021/07/10 06:05:39;;;;;;;2.10;1.10;;;23.70;64.10;;;;;;5125236;28;20264;-33
2021/07/10 06:08:06;;;;;;;2.70;1.25;;;23.70;64.00;;;;;;5125224;28;20024;-34
2021/07/10 06:10:32;;;;;;;1.27;1.00;;;23.70;64.10;;;;;;5125695;28;20035;-34
2021/07/10 06:12:58;;;;;;;1.90;1.10;;;23.70;64.10;;;;;;5123965;28;20114;-33
2021/07/10 06:15:24;;;;;;;1.52;1.00;;;23.70;64.00;;;;;;5124404;28;20035;-34
2021/07/10 06:17:50;;;;;;;1.15;1.00;;;23.70;64.10;;;;;;5125150;28;20024;-34
2021/07/10 06:20:17;;;;;;;1.08;0.88;;;23.70;64.00;;;;;;5125064;28;20855;-34
2021/07/10 06:22:44;;;;;;;1.20;1.10;;;23.60;64.00;;;;;;5125270;28;20039;-33
2021/07/10 06:25:11;;;;;;;1.42;1.33;;;23.60;64.10;;;;;;5123733;28;20290;-34
2021/07/10 06:27:37;;;;;;;1.02;0.93;;;23.60;64.80;;;;;;5125085;28;20020;-33
2021/07/10 06:30:07;;;;;;;1.42;1.02;;;23.60;64.00;;;;;;5124847;28;20024;-34
2021/07/10 06:32:33;;;;;;;1.80;1.00;;;23.60;64.10;;;;;;5124771;28;20069;-34
2021/07/10 06:35:00;;;;;;;1.48;1.15;;;23.60;64.10;;;;;;5124837;28;20028;-34
2021/07/10 06:37:26;;;;;;;1.73;1.20;;;23.60;64.10;;;;;;5125290;28;20043;-33
2021/07/10 06:39:52;;;;;;;1.15;0.95;;;23.60;64.10;;;;;;5124618;28;20114;-34
2021/07/10 06:42:20;;;;;;;1.83;1.30;;;23.60;64.10;;;;;;5124861;28;20031;-34
2021/07/10 06:44:46;;;;;;;1.25;1.15;;;23.60;64.20;;;;;;5124649;27;20028;-34
2021/07/10 06:47:13;;;;;;;1.10;1.00;;;23.60;64.10;;;;;;5123341;28;20050;-34
2021/07/10 06:49:39;;;;;;;2.83;1.30;;;23.60;64.20;;;;;;5124689;28;20038;-33
2021/07/10 06:52:06;;;;;;;1.20;1.10;;;23.60;64.20;;;;;;5124698;28;20057;-34
2021/07/10 06:54:32;;;;;;;1.10;1.00;;;23.60;64.30;;;;;;5124524;28;20036;-33
2021/07/10 06:56:58;;;;;;;1.38;1.27;;;23.60;64.30;;;;;;5124461;28;20035;-34
2021/07/10 06:59:24;;;;;;;2.20;1.00;;;23.60;64.20;;;;;;5124224;28;20024;-34
2021/07/10 07:01:51;;;;;;;1.38;1.20;;;23.60;64.30;;;;;;5124451;28;20038;-33
2021/07/10 07:04:18;;;;;;;1.30;1.07;;;23.60;64.30;;;;;;5124322;28;20059;-33
2021/07/10 07:06:44;;;;;;;1.88;1.20;;;23.60;64.30;;;;;;5124241;28;20020;-33
2021/07/10 07:09:10;;;;;;;1.33;1.13;;;23.60;64.30;;;;;;5123752;28;20035;-33
2021/07/10 07:11:36;;;;;;;1.10;0.95;;;23.60;64.30;;;;;;5124221;28;20264;-34
2021/07/10 07:14:03;;;;;;;1.73;1.20;;;23.60;64.30;;;;;;5124194;28;20055;-34
2021/07/10 07:16:29;;;;;;;1.30;1.20;;;23.60;64.40;;;;;;5124256;28;20051;-33
2021/07/10 07:18:55;;;;;;;1.10;1.00;;;23.60;64.50;;;;;;5123699;28;20053;-34
2021/07/10 07:21:21;;;;;;;1.23;1.10;;;23.60;64.40;;;;;;5124069;28;20023;-34
2021/07/10 07:23:47;;;;;;;1.42;1.20;;;23.50;65.00;;;;;;5124147;28;20027;-34
2021/07/10 07:26:13;;;;;;;1.67;1.20;;;23.50;64.30;;;;;;5122952;28;20377;-33
2021/07/10 07:28:40;;;;;;;1.55;1.20;;;23.50;64.40;;;;;;5124152;28;20015;-33
2021/07/10 07:31:06;;;;;;;2.03;1.20;;;23.50;64.50;;;;;;5123472;28;20038;-34
2021/07/10 07:33:32;;;;;;;2.20;1.13;;;23.50;64.50;;;;;;5123857;28;20026;-34
2021/07/10 07:35:58;;;;;;;3.13;1.20;;;23.50;64.50;;;;;;5123779;28;20032;-34
2021/07/10 07:38:25;;;;;;;1.88;1.00;;;23.50;64.50;;;;;;5123639;28;20049;-34
2021/07/10 07:40:51;;;;;;;1.35;1.25;;;23.50;64.50;;;;;;5123564;28;20469;-33
2021/07/10 07:43:17;;;;;;;1.30;1.15;;;23.50;64.60;;;;;;5123794;28;20028;-34
2021/07/10 07:45:44;;;;;;;1.73;1.10;;;23.50;64.50;;;;;;5123519;28;20028;-34
2021/07/10 07:48:10;;;;;;;1.02;0.90;;;23.50;64.60;;;;;;5123612;28;20034;-34
2021/07/10 07:50:36;;;;;;;2.53;1.20;;;23.50;64.60;;;;;;5123285;28;20031;-34
2021/07/10 07:53:02;;;;;;;1.40;1.30;;;23.50;65.40;;;;;;5123548;28;20084;-34
2021/07/10 07:55:28;;;;;;;1.13;1.00;;;23.50;64.60;;;;;;5123237;28;20032;-33
2021/07/10 07:57:54;;;;;;;1.63;1.30;;;23.50;64.70;;;;;;5123376;28;20020;-34
2021/07/10 08:00:22;;;;;;;1.52;1.00;;;23.50;64.60;;;;;;5123380;28;20031;-34
2021/07/10 08:02:48;;;;;;;0.93;0.93;;;23.50;64.70;;;;;;5123627;28;20453;-34
2021/07/10 08:05:15;;;;;;;1.10;1.00;;;23.50;65.50;;;;;;5123049;28;20031;-33
2021/07/10 08:07:41;;;;;;;1.27;1.17;;;23.50;64.60;;;;;;5123329;28;20032;-34
2021/07/10 08:10:08;;;;;;;1.20;1.10;;;23.40;64.70;;;;;;5123256;28;20046;-34
2021/07/10 08:12:34;;;;;;;1.58;1.00;;;23.50;64.80;;;;;;5123160;28;20057;-34
2021/07/10 08:15:01;;;;;;;1.38;1.27;;;23.40;64.70;;;;;;5123162;28;20102;-34
2021/07/10 08:17:28;;;;;;;1.40;1.30;;;23.40;64.70;;;;;;5123113;28;20031;-34
2021/07/10 08:19:55;;;;;;;1.70;1.08;;;23.40;64.70;;;;;;5122725;28;20047;-34
2021/07/10 08:22:22;;;;;;;1.17;1.08;;;23.40;64.70;;;;;;5123171;28;20115;-34
2021/07/10 08:24:48;;;;;;;1.20;1.10;;;23.40;64.70;;;;;;5123215;28;20032;-34
2021/07/10 08:27:14;;;;;;;1.25;1.15;;;23.40;64.70;;;;;;5122951;28;20038;-35
2021/07/10 08:29:40;;;;;;;1.73;1.10;;;23.40;64.70;;;;;;5123075;28;20019;-34
2021/07/10 08:32:07;;;;;;;1.70;1.10;;;23.40;64.80;;;;;;5123043;28;20087;-34
2021/07/10 08:34:33;;;;;;;2.00;1.40;;;23.40;64.80;;;;;;5123044;28;20035;-34
2021/07/10 08:37:02;;;;;;;1.70;1.13;;;23.40;64.90;;;;;;5123268;28;20036;-34
2021/07/10 08:39:28;;;;;;;1.00;1.00;;;23.30;64.80;;;;;;5127343;28;20031;-35
2021/07/10 08:41:54;;;;;;;1.30;1.20;;;23.30;64.80;;;;;;5126859;28;20058;-33
2021/07/10 08:44:21;;;;;;;1.08;0.98;;;23.40;64.90;;;;;;5127190;28;20095;-34
2021/07/10 08:46:47;;;;;;;1.58;1.27;;;23.30;64.80;;;;;;5127246;28;20023;-34
2021/07/10 08:49:16;;;;;;;1.42;1.10;;;23.40;64.90;;;;;;5126894;28;20087;-34
2021/07/10 08:51:46;;;;;;;1.13;1.02;;;23.30;64.80;;;;;;5126803;28;20036;-34
2021/07/10 08:54:13;;;;;;;1.30;1.10;;;23.30;64.90;;;;;;5127100;27;20036;-34
2021/07/10 08:56:39;;;;;;;1.98;1.40;;;23.30;64.90;;;;;;5126719;28;20039;-34
2021/07/10 08:59:09;;;;;;;1.57;1.10;;;23.30;64.80;;;;;;5127027;27;20038;-33
2021/07/10 09:01:35;;;;;;;1.40;1.00;;;23.30;64.90;;;;;;5125340;28;20264;-34
2021/07/10 09:04:01;;;;;;;1.00;1.00;;;23.30;64.80;;;;;;5126922;28;20717;-34
2021/07/10 09:06:27;;;;;;;1.33;1.08;;;23.30;64.90;;;;;;5126657;28;20030;-34
2021/07/10 09:08:56;;;;;;;1.10;1.00;;;23.30;64.90;;;;;;5126348;28;20035;-34
2021/07/10 09:11:23;;;;;;;1.15;1.00;;;23.30;64.90;;;;;;5126060;28;20043;-33
2021/07/10 09:13:54;;;;;;;1.20;1.07;;;23.30;65.00;;;;;;5124993;28;20028;-34
2021/07/10 09:16:29;;;;;;;1.30;1.20;;;23.30;65.00;;;;;;5126642;28;20103;-34
2021/07/10 09:19:02;;;;;;;1.00;0.90;;;23.30;65.10;;;;;;5126479;28;20706;-34
2021/07/10 09:21:36;;;;;;;1.20;1.10;;;23.30;64.90;;;;;;5126307;28;20023;-33
2021/07/10 09:24:07;;;;;;;1.33;1.23;;;23.30;65.00;;;;;;5126350;28;20425;-34
2021/07/10 09:26:33;;;;;;;3.03;1.48;;;23.30;65.00;;;;;;5105625;28;20440;-33
2021/07/10 09:29:01;;;;;;;3.30;1.30;;;23.30;65.00;;;;;;5106120;28;20020;-34
2021/07/10 09:31:29;;;;;;;1.45;1.25;;;23.30;65.10;;;;;;5118097;28;20279;-34
2021/07/10 09:33:58;;;;;;;1.80;1.10;;;23.20;65.00;;;;;;5126294;28;20119;-34
2021/07/10 09:36:25;;;;;;;1.20;1.10;;;23.20;65.00;;;;;;5125963;28;20035;-34
2021/07/10 09:38:53;;;;;;;1.30;1.20;;;23.20;65.10;;;;;;5125709;28;20827;-34
2021/07/10 09:41:30;;;;;;;1.50;1.35;;;23.20;65.00;;;;;;5125530;28;20035;-34
2021/07/10 09:44:08;;;;;;;1.65;1.33;;;23.20;65.00;;;;;;5125959;27;20127;-34
2021/07/10 09:46:34;;;;;;;;;;;23.20;65.00;;;;;;5125635;28;20024;-34
2021/07/10 09:49:20;;;;;;;2.28;1.10;;;23.20;65.00;;;;;;5124817;28;19908;-33
2021/07/10 09:51:46;;;;;;;1.98;1.20;;;23.20;65.10;;;;;;5125541;28;20044;-34
2021/07/10 09:54:12;;;;;;;1.80;1.15;;;23.20;65.10;;;;;;5125780;28;20020;-34
2021/07/10 09:56:58;;;;;;;0.95;0.88;;;23.20;65.10;;;;;;5125681;28;20035;-33
2021/07/10 09:59:24;;;;;;;1.20;1.08;;;23.20;65.20;;;;;;5125652;28;20024;-34
2021/07/10 10:01:51;;;;;;;1.80;0.98;;;23.20;65.20;;;;;;5125175;28;20024;-34
2021/07/10 10:04:31;;;;;;;1.67;1.17;;;23.20;65.20;;;;;;5124121;28;20024;-34
2021/07/10 10:06:58;;;;;;;1.33;1.15;;;23.20;65.20;;;;;;5125452;28;20028;-34
2021/07/10 10:09:26;;;;;;;2.03;1.10;;;23.20;65.20;;;;;;5125262;28;20065;-34
2021/07/10 10:12:04;;;;;;;1.10;1.00;;;23.20;65.30;;;;;;5124035;28;20711;-34
2021/07/10 10:14:32;;;;;;;1.20;1.10;;;23.20;65.30;;;;;;5125079;27;20039;-34
2021/07/10 10:16:59;;;;;;;1.63;1.10;;;23.10;65.20;;;;;;5125195;28;20091;-34
2021/07/10 10:19:28;;;;;;;1.80;1.05;;;23.20;65.30;;;;;;5123689;28;20036;-34
2021/07/10 10:21:55;;;;;;;1.45;1.30;;;23.10;65.20;;;;;;5124949;28;20031;-34
2021/07/10 10:24:22;;;;;;;;;;;23.10;65.30;;;;;;5125648;28;20020;-33
2021/07/10 10:26:48;;;;;;;1.10;1.00;;;23.10;65.20;;;;;;5125248;28;19904;-33
2021/07/10 10:29:16;;;;;;;1.85;1.20;;;23.10;65.20;;;;;;5125131;28;20567;-34
2021/07/10 10:31:42;;;;;;;1.65;1.10;;;23.10;65.30;;;;;;5108529;28;20031;-34
2021/07/10 10:34:09;;;;;;;1.80;1.30;;;23.10;65.30;;;;;;5104723;28;20062;-34
2021/07/10 10:36:35;;;;;;;1.85;1.15;;;23.10;65.30;;;;;;5120217;28;20044;-34
2021/07/10 10:39:06;;;;;;;1.20;1.10;;;23.10;65.30;;;;;;5124635;28;20020;-34
2021/07/10 10:41:33;;;;;;;1.27;1.17;;;23.10;65.30;;;;;;5124598;28;20043;-33
2021/07/10 10:43:59;;;;;;;2.30;1.10;;;23.10;65.30;;;;;;5124808;28;20030;-34
2021/07/10 10:46:25;;;;;;;1.30;1.20;;;23.10;65.30;;;;;;5106543;28;20035;-33
2021/07/10 10:48:52;;;;;;;1.45;1.20;;;23.10;65.30;;;;;;5124674;28;20080;-34
2021/07/10 10:51:32;;;;;;;1.10;0.90;;;23.10;65.30;;;;;;5124547;28;20032;-34
2021/07/10 10:54:16;;;;;;;1.58;0.90;;;23.10;65.40;;;;;;5123255;28;20016;-34
2021/07/10 10:56:43;;;;;;;2.22;1.40;;;23.10;65.30;;;;;;5124368;28;20036;-34
2021/07/10 10:59:27;;;;;;;2.00;1.27;;;23.10;65.40;;;;;;5124690;28;20114;-34
2021/07/10 11:01:54;;;;;;;1.42;0.90;;;23.10;65.30;;;;;;5124015;28;20035;-34
2021/07/10 11:04:39;;;;;;;;;;;23.10;65.40;;;;;;5124868;28;20035;-34
2021/07/10 11:07:27;;;;;;;1.30;1.05;;;23.10;65.40;;;;;;5123769;28;20435;-33
2021/07/10 11:10:02;;;;;;;;;;;23.10;65.40;;;;;;5104356;28;20028;-34
2021/07/10 11:12:55;;;;;;;1.67;1.23;;;23.10;65.40;;;;;;5103736;28;20577;-34
2021/07/10 11:15:27;;;;;;;1.20;0.90;;;23.00;65.40;;;;;;5107301;28;20073;-33
2021/07/10 11:17:54;;;;;;;1.48;1.05;;;23.00;65.50;;;;;;5124047;28;20028;-34
2021/07/10 11:20:44;;;;;;;1.67;1.15;;;23.10;65.50;;;;;;5124046;28;20040;-34
2021/07/10 11:23:35;;;;;;;1.38;0.85;;;23.00;65.50;;;;;;5123869;28;20640;-33
2021/07/10 11:26:11;;;;;;;1.88;1.10;;;23.00;65.50;;;;;;5123938;28;20091;-33
2021/07/10 11:28:47;;;;;;;1.20;1.10;;;23.00;65.60;;;;;;5123856;28;20019;-34
2021/07/10 11:31:17;;;;;;;1.25;1.15;;;23.00;65.50;;;;;;5112980;28;20050;-33
2021/07/10 11:34:00;;;;;;;1.30;1.02;;;23.00;65.50;;;;;;5102993;28;20066;-34
2021/07/10 11:36:53;;;;;;;1.13;1.00;;;23.00;65.60;;;;;;5103217;28;20035;-34
2021/07/10 11:39:26;;;;;;;1.83;1.02;;;23.00;65.60;;;;;;5103339;28;20024;-34
2021/07/10 11:41:56;;;;;;;1.20;1.10;;;23.00;65.50;;;;;;5103072;28;20020;-34
2021/07/10 11:44:27;;;;;;;1.10;0.98;;;23.00;65.60;;;;;;5122760;28;20135;-34
2021/07/10 11:46:56;;;;;;;1.10;1.00;;;23.00;65.60;;;;;;5123408;28;20039;-34
2021/07/10 11:49:42;;;;;;;1.23;1.10;;;23.00;65.60;;;;;;5123590;28;20057;-34
2021/07/10 11:52:19;;;;;;;1.15;0.95;;;23.00;65.60;;;;;;5123381;28;20030;-34
2021/07/10 11:54:50;;;;;;;1.33;0.90;;;23.00;65.60;;;;;;5123224;28;20028;-34
2021/07/10 11:57:16;;;;;;;1.58;1.10;;;23.00;66.30;;;;;;5123317;28;20039;-36
2021/07/10 11:59:43;;;;;;;1.38;1.27;;;23.00;65.60;;;;;;5123430;28;20683;-34
2021/07/10 12:02:16;;;;;;;1.77;1.02;;;23.00;65.70;;;;;;5123183;28;20031;-34
2021/07/10 12:05:05;;;;;;;1.00;0.90;;;23.00;65.50;;;;;;5122835;28;20480;-34
2021/07/10 12:07:32;;;;;;;1.30;1.20;;;23.00;65.50;;;;;;5119743;28;20036;-34
2021/07/10 12:09:58;;;;;;;1.65;1.00;;;23.00;65.60;;;;;;5121755;28;20118;-34
2021/07/10 12:12:25;;;;;;;1.30;1.20;;;23.00;65.50;;;;;;5121814;28;20034;-34
2021/07/10 12:14:52;;;;;;;1.52;1.00;;;23.00;65.40;;;;;;5122580;28;20039;-34
2021/07/10 12:17:18;;;;;;;1.45;0.98;;;23.00;65.40;;;;;;5122919;28;20039;-34
2021/07/10 12:19:44;;;;;;;1.50;1.15;;;23.00;65.40;;;;;;5121612;28;20043;-34
2021/07/10 12:22:10;;;;;;;1.15;1.05;;;23.00;65.40;;;;;;5122917;28;20122;-34
2021/07/10 12:24:36;;;;;;;1.10;1.00;;;23.00;65.30;;;;;;5122761;28;20511;-34
2021/07/10 12:27:10;;;;;;;0.93;0.90;;;23.00;65.30;;;;;;5123052;28;20038;-33
2021/07/10 12:29:36;;;;;;;1.08;1.00;;;23.00;65.30;;;;;;5123172;28;20015;-34
2021/07/10 12:32:03;;;;;;;1.47;1.20;;;23.10;65.30;;;;;;5122822;28;20076;-34
2021/07/10 12:34:30;;;;;;;1.10;1.00;;;23.00;65.30;;;;;;5122515;28;20064;-33
2021/07/10 12:36:59;;;;;;;1.00;1.00;;;23.10;65.30;;;;;;5122514;28;20035;-34
2021/07/10 12:39:25;;;;;;;1.25;1.15;;;23.10;65.30;;;;;;5120931;28;20028;-34
2021/07/10 12:41:54;;;;;;;1.13;1.02;;;23.10;65.40;;;;;;5122795;28;20055;-34
2021/07/10 12:44:36;;;;;;;1.33;1.10;;;23.10;65.50;;;;;;5121217;28;20023;-33
2021/07/10 12:47:16;;;;;;;1.63;1.17;;;23.10;65.40;;;;;;5102298;28;20162;-33
2021/07/10 12:49:47;;;;;;;0.98;0.80;;;23.10;65.40;;;;;;5112548;28;20049;-34
2021/07/10 12:52:40;;;;;;;1.13;1.02;;;23.10;65.50;;;;;;5122699;28;20020;-34